createdAt,value
2019-01-14T00:01:03.541Z,7.90
2019-01-14T00:03:30.739Z,7.90
2019-01-14T00:05:56.758Z,7.90
2019-01-14T00:08:22.805Z,8.00
2019-01-14T00:10:56.886Z,8.00
2019-01-14T00:13:22.911Z,8.00
2019-01-14T00:15:49.169Z,8.00
2019-01-14T00:18:21.202Z,8.00
2019-01-14T00:20:58.554Z,8.00
2019-01-14T00:23:24.556Z,8.10
2019-01-14T00:25:50.639Z,8.10
2019-01-14T00:28:16.758Z,8.10
2019-01-14T00:30:42.739Z,8.10
2019-01-14T00:33:08.779Z,8.10
2019-01-14T00:35:37.872Z,8.10
2019-01-14T00:38:03.995Z,8.10
2019-01-14T00:40:30.165Z,8.10
2019-01-14T00:42:58.374Z,8.10
2019-01-14T00:45:26.755Z,8.10
2019-01-14T00:47:52.937Z,8.10
2019-01-14T00:50:21.056Z,8.10
2019-01-14T00:52:47.106Z,8.10
2019-01-14T00:55:13.271Z,8.00
2019-01-14T00:57:39.529Z,8.10
2019-01-14T01:00:09.737Z,8.10
2019-01-14T01:02:35.745Z,8.10
2019-01-14T01:05:04.330Z,8.10
2019-01-14T01:07:30.386Z,8.00
2019-01-14T01:09:56.439Z,8.00
2019-01-14T01:12:41.957Z,7.90
2019-01-14T01:15:10.960Z,7.90
2019-01-14T01:17:36.988Z,7.80
2019-01-14T01:20:06.697Z,7.80
2019-01-14T01:22:34.752Z,7.90
2019-01-14T01:25:00.979Z,7.90
2019-01-14T01:27:27.018Z,7.90
2019-01-14T01:29:53.170Z,7.90
2019-01-14T01:32:19.258Z,7.90
2019-01-14T01:34:45.274Z,7.90
2019-01-14T01:37:15.325Z,7.80
2019-01-14T01:39:41.691Z,7.90
2019-01-14T01:42:07.736Z,7.90
2019-01-14T01:44:34.855Z,8.00
2019-01-14T01:47:00.841Z,8.00
2019-01-14T01:49:26.947Z,8.00
2019-01-14T01:51:55.027Z,7.90
2019-01-14T01:54:21.054Z,7.90
2019-01-14T01:56:47.059Z,7.80
2019-01-14T01:59:19.183Z,7.80
2019-01-14T02:01:45.189Z,7.80
2019-01-14T02:04:11.180Z,7.90
2019-01-14T02:06:39.253Z,7.80
2019-01-14T02:09:06.420Z,7.80
2019-01-14T02:11:32.404Z,7.70
2019-01-14T02:13:58.764Z,7.70
2019-01-14T02:16:24.877Z,7.70
2019-01-14T02:18:50.870Z,7.70
2019-01-14T02:21:16.869Z,7.70
2019-01-14T02:23:43.973Z,7.70
2019-01-14T02:26:10.001Z,7.70
2019-01-14T02:28:36.071Z,7.60
2019-01-14T02:31:02.209Z,7.70
2019-01-14T02:33:33.320Z,7.60
2019-01-14T02:35:59.685Z,7.60
2019-01-14T02:38:25.729Z,7.60
2019-01-14T02:40:54.776Z,7.50
2019-01-14T02:43:20.847Z,7.50
2019-01-14T02:45:46.894Z,7.40
2019-01-14T02:48:17.173Z,7.40
2019-01-14T02:50:43.223Z,7.40
2019-01-14T02:53:09.233Z,7.30
2019-01-14T02:55:43.381Z,7.30
2019-01-14T02:58:09.474Z,7.40
2019-01-14T03:00:35.540Z,7.30
2019-01-14T03:03:01.569Z,7.30
2019-01-14T03:05:36.649Z,7.30
2019-01-14T03:08:03.829Z,7.30
2019-01-14T03:10:29.920Z,7.30
2019-01-14T03:12:56.013Z,7.30
2019-01-14T03:15:23.166Z,7.30
2019-01-14T03:17:49.253Z,7.20
2019-01-14T03:20:16.193Z,7.20
2019-01-14T03:22:43.018Z,7.30
2019-01-14T03:25:09.799Z,7.20
2019-01-14T03:27:35.814Z,7.20
2019-01-14T03:30:10.188Z,7.10
2019-01-14T03:32:36.205Z,7.20
2019-01-14T03:35:04.156Z,7.10
2019-01-14T03:37:30.200Z,7.20
2019-01-14T03:39:56.232Z,7.10
2019-01-14T03:42:22.244Z,7.10
2019-01-14T03:44:51.397Z,7.00
2019-01-14T03:47:17.386Z,7.00
2019-01-14T03:49:43.404Z,7.00
2019-01-14T03:52:11.500Z,7.00
2019-01-14T03:54:37.744Z,7.00
2019-01-14T03:57:03.862Z,7.00
2019-01-14T03:59:31.955Z,6.90
2019-01-14T04:01:58.096Z,6.90
2019-01-14T04:04:24.106Z,6.90
2019-01-14T04:06:50.140Z,6.80
2019-01-14T04:09:16.242Z,6.90
2019-01-14T04:11:42.322Z,6.80
2019-01-14T04:14:08.418Z,6.80
2019-01-14T04:16:34.454Z,6.80
2019-01-14T04:19:12.562Z,6.80
2019-01-14T04:21:38.641Z,6.70
2019-01-14T04:24:06.717Z,6.70
2019-01-14T04:26:32.905Z,6.70
2019-01-14T04:28:59.001Z,6.60
2019-01-14T04:31:25.041Z,6.70
2019-01-14T04:33:56.109Z,6.60
2019-01-14T04:36:22.464Z,6.60
2019-01-14T04:38:48.741Z,6.60
2019-01-14T04:41:15.861Z,6.60
2019-01-14T04:43:42.957Z,6.60
2019-01-14T04:46:08.963Z,6.60
2019-01-14T04:48:34.984Z,6.60
2019-01-14T04:51:01.136Z,6.60
2019-01-14T04:53:27.320Z,6.60
2019-01-14T04:55:53.412Z,6.60
2019-01-14T04:58:19.572Z,6.60
2019-01-14T05:00:48.939Z,6.60
2019-01-14T05:03:14.957Z,6.60
2019-01-14T05:05:41.087Z,6.70
2019-01-14T05:08:12.977Z,6.70
2019-01-14T05:10:42.128Z,6.70
2019-01-14T05:13:09.554Z,6.70
2019-01-14T05:15:37.010Z,6.80
2019-01-14T05:18:03.443Z,6.80
2019-01-14T05:20:37.817Z,6.80
2019-01-14T05:23:11.805Z,6.80
2019-01-14T05:25:39.909Z,6.80
2019-01-14T05:28:06.085Z,6.80
2019-01-14T05:30:36.855Z,6.80
2019-01-14T05:33:07.991Z,6.80
2019-01-14T05:35:34.149Z,6.80
2019-01-14T05:38:00.168Z,6.80
2019-01-14T05:40:26.220Z,6.90
2019-01-14T05:43:15.276Z,6.90
2019-01-14T05:45:53.538Z,6.90
2019-01-14T05:48:25.880Z,6.90
2019-01-14T05:50:52.174Z,6.90
2019-01-14T05:53:18.305Z,6.90
2019-01-14T05:56:03.195Z,6.90
2019-01-14T05:58:36.144Z,6.80
2019-01-14T06:01:12.130Z,6.80
2019-01-14T06:03:38.229Z,6.70
2019-01-14T06:06:04.426Z,6.80
2019-01-14T06:08:30.426Z,6.70
2019-01-14T06:10:57.558Z,6.70
2019-01-14T06:13:28.939Z,6.60
2019-01-14T06:15:54.940Z,6.60
2019-01-14T06:18:20.944Z,6.60
2019-01-14T06:20:48.504Z,6.60
2019-01-14T06:23:17.626Z,6.60
2019-01-14T06:25:43.997Z,6.60
2019-01-14T06:28:10.170Z,6.60
2019-01-14T06:30:36.184Z,6.60
2019-01-14T06:33:02.349Z,6.70
2019-01-14T06:35:29.905Z,6.70
2019-01-14T06:37:56.035Z,6.60
2019-01-14T06:40:22.056Z,6.60
2019-01-14T06:42:48.189Z,6.70
2019-01-14T06:45:15.166Z,6.60
2019-01-14T06:47:41.643Z,6.60
2019-01-14T06:50:17.525Z,6.60
2019-01-14T06:52:43.783Z,6.50
2019-01-14T06:55:10.156Z,6.50
2019-01-14T06:57:40.422Z,6.50
2019-01-14T07:00:19.946Z,6.40
2019-01-14T07:02:49.342Z,6.40
2019-01-14T07:05:20.807Z,6.40
2019-01-14T07:07:47.189Z,6.40
2019-01-14T07:10:22.115Z,6.40
2019-01-14T07:12:48.449Z,6.40
2019-01-14T07:15:20.764Z,6.40
2019-01-14T07:17:53.151Z,6.40
2019-01-14T07:20:28.473Z,6.40
2019-01-14T07:22:54.503Z,6.40
2019-01-14T07:25:20.640Z,6.40
2019-01-14T07:27:46.702Z,6.40
2019-01-14T07:30:15.182Z,6.40
2019-01-14T07:32:42.332Z,6.30
2019-01-14T07:35:11.421Z,6.30
2019-01-14T07:37:39.456Z,6.30
2019-01-14T07:40:14.384Z,6.40
2019-01-14T07:42:40.449Z,6.40
2019-01-14T07:45:10.040Z,6.40
2019-01-14T07:47:36.084Z,6.40
2019-01-14T07:50:07.021Z,6.40
2019-01-14T07:52:40.327Z,6.40
2019-01-14T07:55:06.875Z,6.40
2019-01-14T07:57:35.043Z,6.40
2019-01-14T08:00:01.070Z,6.40
2019-01-14T08:02:27.116Z,6.40
2019-01-14T08:04:53.172Z,6.50
2019-01-14T08:07:19.264Z,6.50
2019-01-14T08:09:45.306Z,6.60
2019-01-14T08:12:13.428Z,6.50
2019-01-14T08:14:42.755Z,6.50
2019-01-14T08:17:15.104Z,6.50
2019-01-14T08:19:47.144Z,6.60
2019-01-14T08:22:13.572Z,6.60
2019-01-14T08:24:43.890Z,6.50
2019-01-14T08:27:09.945Z,6.60
2019-01-14T08:29:35.988Z,6.60
2019-01-14T08:32:02.167Z,6.50
2019-01-14T08:34:28.163Z,6.40
2019-01-14T08:37:00.591Z,6.40
2019-01-14T08:39:23.384Z,6.40
2019-01-14T08:41:52.625Z,6.40
2019-01-14T08:44:20.676Z,6.40
2019-01-14T08:46:46.660Z,6.40
2019-01-14T08:49:14.765Z,6.40
2019-01-14T08:51:40.758Z,6.30
2019-01-14T08:54:06.943Z,6.20
2019-01-14T08:56:32.968Z,6.20
2019-01-14T08:58:59.118Z,6.20
2019-01-14T09:01:25.130Z,6.20
2019-01-14T09:03:51.307Z,6.20
2019-01-14T09:06:19.467Z,6.30
2019-01-14T09:08:45.622Z,6.30
2019-01-14T09:11:22.780Z,6.20
2019-01-14T09:13:48.904Z,6.20
2019-01-14T09:16:14.959Z,6.20
2019-01-14T09:18:41.146Z,6.20
2019-01-14T09:21:07.172Z,6.30
2019-01-14T09:23:33.452Z,6.30
2019-01-14T09:25:59.791Z,6.40
2019-01-14T09:28:25.959Z,6.30
2019-01-14T09:30:52.019Z,6.30
2019-01-14T09:33:22.223Z,6.30
2019-01-14T09:36:19.254Z,6.30
2019-01-14T09:38:55.335Z,6.30
2019-01-14T09:41:30.387Z,6.20
2019-01-14T09:43:57.459Z,6.10
2019-01-14T09:46:29.545Z,6.10
2019-01-14T09:48:55.627Z,6.10
2019-01-14T09:51:25.960Z,6.20
2019-01-14T09:53:52.123Z,6.20
2019-01-14T09:56:20.157Z,6.20
2019-01-14T09:58:48.616Z,6.20
2019-01-14T10:01:16.731Z,6.20
2019-01-14T10:03:42.920Z,6.20
2019-01-14T10:06:09.002Z,6.20
2019-01-14T10:08:43.162Z,6.10
2019-01-14T10:11:09.977Z,6.10
2019-01-14T10:13:42.865Z,6.00
2019-01-14T10:16:09.031Z,6.00
2019-01-14T10:18:35.096Z,6.00
2019-01-14T10:21:01.118Z,6.00
2019-01-14T10:23:36.052Z,6.10
2019-01-14T10:26:16.478Z,6.00
2019-01-14T10:28:42.639Z,6.00
2019-01-14T10:31:08.808Z,6.00
2019-01-14T10:33:34.815Z,5.90
2019-01-14T10:36:00.885Z,5.90
2019-01-14T10:38:26.952Z,6.00
2019-01-14T10:40:52.979Z,6.00
2019-01-14T10:43:18.999Z,6.00
2019-01-14T10:45:46.043Z,6.00
2019-01-14T10:48:12.064Z,6.10
2019-01-14T10:50:38.109Z,6.10
2019-01-14T10:53:08.277Z,6.10
2019-01-14T10:55:49.624Z,6.20
2019-01-14T10:58:17.777Z,6.20
2019-01-14T11:00:51.063Z,6.20
2019-01-14T11:03:17.261Z,6.30
2019-01-14T11:05:57.625Z,6.30
2019-01-14T11:08:25.723Z,6.40
2019-01-14T11:10:52.938Z,6.50
2019-01-14T11:13:20.381Z,6.50
2019-01-14T11:15:53.400Z,6.50
2019-01-14T11:18:19.496Z,6.50
2019-01-14T11:20:45.959Z,6.60
2019-01-14T11:23:11.958Z,6.60
2019-01-14T11:25:41.159Z,6.50
2019-01-14T11:28:13.035Z,6.60
2019-01-14T11:30:39.090Z,6.60
2019-01-14T11:33:08.305Z,6.60
2019-01-14T11:35:43.392Z,6.70
2019-01-14T11:38:29.639Z,6.70
2019-01-14T11:40:55.784Z,6.70
2019-01-14T11:43:21.885Z,6.70
2019-01-14T11:45:50.026Z,6.80
2019-01-14T11:48:24.352Z,6.70
2019-01-14T11:51:18.316Z,6.80
2019-01-14T11:53:46.591Z,6.80
2019-01-14T11:56:12.646Z,6.80
2019-01-14T11:58:38.830Z,6.80
2019-01-14T12:01:04.816Z,6.80
2019-01-14T12:03:36.146Z,6.80
2019-01-14T12:06:08.584Z,6.70
2019-01-14T12:08:36.771Z,6.80
2019-01-14T12:11:11.823Z,6.70
2019-01-14T12:13:37.921Z,6.70
2019-01-14T12:16:09.052Z,6.80
2019-01-14T12:18:41.322Z,6.80
2019-01-14T12:21:17.607Z,6.80
2019-01-14T12:23:43.643Z,6.70
2019-01-14T12:26:09.676Z,6.80
2019-01-14T12:28:45.811Z,6.90
2019-01-14T12:31:12.028Z,6.80
2019-01-14T12:33:44.282Z,6.70
2019-01-14T12:36:10.380Z,6.70
2019-01-14T12:38:37.447Z,6.80
2019-01-14T12:41:18.872Z,6.90
2019-01-14T12:43:45.084Z,6.70
2019-01-14T12:46:13.192Z,6.80
2019-01-14T12:48:39.250Z,6.70
2019-01-14T12:51:05.484Z,6.90
2019-01-14T12:53:32.387Z,7.10
2019-01-14T12:55:59.478Z,7.00
2019-01-14T12:58:25.721Z,6.90
2019-01-14T13:00:51.946Z,6.80
2019-01-14T13:03:20.005Z,6.70
2019-01-14T13:05:47.144Z,6.80
2019-01-14T13:08:13.436Z,6.90
2019-01-14T13:10:43.560Z,7.00
2019-01-14T13:13:09.774Z,7.30
2019-01-14T13:15:35.897Z,7.50
2019-01-14T13:18:05.403Z,7.70
2019-01-14T13:20:33.296Z,7.80
2019-01-14T13:22:59.355Z,8.00
2019-01-14T13:25:29.575Z,8.00
2019-01-14T13:27:57.469Z,8.00
2019-01-14T13:30:26.215Z,8.20
2019-01-14T13:33:01.371Z,8.40
2019-01-14T13:35:27.650Z,8.10
2019-01-14T13:37:57.221Z,8.00
2019-01-14T13:40:23.407Z,7.90
2019-01-14T13:42:51.561Z,7.60
2019-01-14T13:45:19.611Z,7.40
2019-01-14T13:47:45.658Z,7.40
2019-01-14T13:50:14.899Z,7.40
2019-01-14T13:52:41.037Z,7.20
2019-01-14T13:55:25.736Z,7.00
2019-01-14T13:58:01.644Z,7.20
2019-01-14T14:00:40.090Z,7.20
2019-01-14T14:03:11.593Z,7.10
2019-01-14T14:05:38.852Z,7.00
2019-01-14T14:08:09.008Z,7.00
2019-01-14T14:10:41.900Z,7.10
2019-01-14T14:13:10.151Z,7.20
2019-01-14T14:15:38.220Z,7.40
2019-01-14T14:18:06.394Z,7.60
2019-01-14T14:20:32.461Z,7.70
2019-01-14T14:22:59.577Z,7.70
2019-01-14T14:25:31.604Z,7.90
2019-01-14T14:27:59.715Z,8.20
2019-01-14T14:30:34.382Z,8.10
2019-01-14T14:33:01.518Z,8.10
2019-01-14T14:35:27.930Z,8.00
2019-01-14T14:38:01.001Z,8.00
2019-01-14T14:40:25.395Z,7.90
2019-01-14T14:42:59.377Z,8.00
2019-01-14T14:45:25.569Z,8.00
2019-01-14T14:47:54.049Z,7.90
2019-01-14T14:50:22.482Z,7.60
2019-01-14T14:52:54.356Z,7.40
2019-01-14T14:55:20.460Z,7.30
2019-01-14T14:57:48.749Z,7.10
2019-01-14T15:00:17.833Z,7.10
2019-01-14T15:02:43.927Z,6.90
2019-01-14T15:05:10.835Z,6.80
2019-01-14T15:07:38.988Z,6.70
2019-01-14T15:10:19.851Z,6.70
2019-01-14T15:12:45.971Z,6.60
2019-01-14T15:15:22.211Z,6.60
2019-01-14T15:18:03.792Z,6.60
2019-01-14T15:20:30.166Z,6.50
2019-01-14T15:22:57.353Z,6.50
2019-01-14T15:25:40.898Z,6.40
2019-01-14T15:28:07.014Z,6.40
2019-01-14T15:30:33.108Z,6.30
2019-01-14T15:32:59.456Z,6.30
2019-01-14T15:35:32.545Z,6.30
2019-01-14T15:37:58.625Z,6.30
2019-01-14T15:40:26.965Z,6.20
2019-01-14T15:42:53.092Z,6.20
2019-01-14T15:45:21.123Z,6.10
2019-01-14T15:47:49.326Z,6.10
2019-01-14T15:50:15.454Z,6.00
2019-01-14T15:52:42.732Z,6.00
2019-01-14T15:55:17.277Z,6.00
2019-01-14T15:57:44.541Z,6.00
2019-01-14T16:00:13.431Z,5.90
2019-01-14T16:02:42.560Z,5.90
2019-01-14T16:05:12.501Z,5.90
2019-01-14T16:07:38.690Z,5.80
2019-01-14T16:10:21.976Z,5.70
2019-01-14T16:12:54.232Z,5.70
2019-01-14T16:15:26.386Z,5.70
2019-01-14T16:17:53.540Z,5.60
2019-01-14T16:20:34.680Z,5.60
2019-01-14T16:23:04.069Z,5.50
2019-01-14T16:25:35.966Z,5.50
2019-01-14T16:28:03.207Z,5.50
2019-01-14T16:30:36.277Z,5.50
2019-01-14T16:33:02.603Z,5.40
2019-01-14T16:35:29.785Z,5.40
2019-01-14T16:38:08.201Z,5.30
2019-01-14T16:40:35.212Z,5.40
2019-01-14T16:43:15.948Z,5.40
2019-01-14T16:45:48.243Z,5.30
2019-01-14T16:48:14.765Z,5.30
2019-01-14T16:50:46.750Z,5.30
2019-01-14T16:53:14.129Z,5.20
2019-01-14T16:55:49.649Z,5.20
2019-01-14T16:58:16.087Z,5.20
2019-01-14T17:00:43.163Z,5.20
2019-01-14T17:03:12.049Z,5.10
2019-01-14T17:05:38.179Z,5.10
2019-01-14T17:08:07.518Z,5.10
2019-01-14T17:10:41.389Z,5.10
2019-01-14T17:13:09.533Z,5.00
2019-01-14T17:15:35.829Z,4.90
2019-01-14T17:18:04.865Z,4.80
2019-01-14T17:20:38.905Z,4.80
2019-01-14T17:23:05.103Z,4.80
2019-01-14T17:25:33.331Z,4.70
2019-01-14T17:28:05.455Z,4.70
2019-01-14T17:30:34.608Z,4.50
2019-01-14T17:33:00.820Z,4.60
2019-01-14T17:35:27.012Z,4.60
2019-01-14T17:37:53.157Z,4.50
2019-01-14T17:40:22.379Z,4.60
2019-01-14T17:42:48.597Z,4.60
2019-01-14T17:45:17.362Z,4.50
2019-01-14T17:47:45.352Z,4.60
2019-01-14T17:50:34.316Z,4.60
2019-01-14T17:53:06.405Z,4.50
2019-01-14T17:55:32.494Z,4.50
2019-01-14T17:58:00.681Z,4.50
2019-01-14T18:00:30.936Z,4.60
2019-01-14T18:03:05.326Z,4.60
2019-01-14T18:05:31.349Z,4.60
2019-01-14T18:07:58.341Z,4.60
2019-01-14T18:10:40.132Z,4.60
2019-01-14T18:13:15.404Z,4.70
2019-01-14T18:15:41.417Z,4.70
2019-01-14T18:18:07.489Z,4.70
2019-01-14T18:20:37.567Z,4.70
2019-01-14T18:23:06.685Z,4.80
2019-01-14T18:25:38.692Z,4.80
2019-01-14T18:28:06.886Z,4.80
2019-01-14T18:30:32.997Z,4.80
2019-01-14T18:32:59.263Z,4.80
2019-01-14T18:35:33.309Z,4.80
2019-01-14T18:38:05.231Z,4.80
2019-01-14T18:40:34.046Z,4.80
2019-01-14T18:43:02.558Z,4.70
2019-01-14T18:45:28.712Z,4.60
2019-01-14T18:48:04.603Z,4.50
2019-01-14T18:50:34.930Z,4.40
2019-01-14T18:53:06.328Z,4.30
2019-01-14T18:55:34.652Z,4.30
2019-01-14T18:58:01.837Z,4.30
2019-01-14T19:00:27.934Z,4.20
2019-01-14T19:02:54.280Z,4.20
2019-01-14T19:05:20.537Z,4.30
2019-01-14T19:07:50.587Z,4.40
2019-01-14T19:10:18.894Z,4.40
2019-01-14T19:12:45.268Z,4.40
2019-01-14T19:15:15.743Z,4.50
2019-01-14T19:17:53.137Z,4.50
2019-01-14T19:20:21.927Z,4.40
2019-01-14T19:22:48.254Z,4.60
2019-01-14T19:25:18.647Z,4.60
2019-01-14T19:27:54.001Z,4.60
2019-01-14T19:30:23.693Z,4.70
2019-01-14T19:32:49.901Z,4.70
2019-01-14T19:35:20.126Z,4.60
2019-01-14T19:37:52.372Z,4.60
2019-01-14T19:40:19.240Z,4.60
2019-01-14T19:42:45.622Z,4.70
2019-01-14T19:45:14.644Z,4.70
2019-01-14T19:47:40.743Z,4.70
2019-01-14T19:50:21.131Z,4.70
2019-01-14T19:52:52.682Z,4.70
2019-01-14T19:55:25.812Z,4.70
2019-01-14T19:57:59.710Z,4.70
2019-01-14T20:00:28.348Z,4.60
2019-01-14T20:02:54.670Z,4.50
2019-01-14T20:05:21.251Z,4.50
2019-01-14T20:07:49.046Z,4.50
2019-01-14T20:10:23.556Z,4.50
2019-01-14T20:12:50.906Z,4.60
2019-01-14T20:15:23.094Z,4.70
2019-01-14T20:17:52.572Z,4.70
2019-01-14T20:20:38.420Z,4.60
2019-01-14T20:23:15.747Z,4.60
2019-01-14T20:25:42.025Z,4.50
2019-01-14T20:28:10.576Z,4.50
2019-01-14T20:30:42.883Z,4.50
2019-01-14T20:33:19.552Z,4.50
2019-01-14T20:36:03.343Z,4.40
2019-01-14T20:38:29.455Z,4.40
2019-01-14T20:40:55.714Z,4.20
2019-01-14T20:43:21.885Z,4.20
2019-01-14T20:45:47.995Z,4.20
2019-01-14T20:48:17.210Z,4.20
2019-01-14T20:50:43.567Z,4.20
2019-01-14T20:53:13.603Z,4.20
2019-01-14T20:55:39.222Z,4.20
2019-01-14T20:58:05.638Z,4.50
2019-01-14T21:00:31.927Z,4.40
2019-01-14T21:03:18.501Z,4.40
2019-01-14T21:05:53.838Z,4.40
2019-01-14T21:08:20.168Z,4.50
2019-01-14T21:10:58.217Z,4.50
2019-01-14T21:13:25.251Z,4.40
2019-01-14T21:15:51.372Z,4.50
2019-01-14T21:18:17.600Z,4.50
2019-01-14T21:20:43.731Z,4.50
2019-01-14T21:23:09.823Z,4.60
2019-01-14T21:25:35.930Z,4.60
2019-01-14T21:28:02.286Z,4.60
2019-01-14T21:30:31.277Z,4.70
2019-01-14T21:33:00.771Z,4.60
2019-01-14T21:35:28.795Z,4.60
2019-01-14T21:37:56.372Z,4.60
2019-01-14T21:40:25.107Z,4.60
2019-01-14T21:42:51.362Z,4.60
2019-01-14T21:45:17.545Z,4.40
2019-01-14T21:47:43.723Z,4.40
2019-01-14T21:50:15.689Z,4.50
2019-01-14T21:52:41.863Z,4.50
2019-01-14T21:55:12.034Z,4.50
2019-01-14T21:57:41.280Z,4.50
2019-01-14T22:00:12.009Z,4.50
2019-01-14T22:02:38.733Z,4.50
2019-01-14T22:05:06.282Z,4.50
2019-01-14T22:07:35.715Z,4.50
2019-01-14T22:10:06.725Z,4.50
2019-01-14T22:12:40.668Z,4.50
2019-01-14T22:15:13.212Z,4.50
2019-01-14T22:17:41.417Z,4.60
2019-01-14T22:20:12.922Z,4.60
2019-01-14T22:22:47.405Z,4.60
2019-01-14T22:25:19.835Z,4.70
2019-01-14T22:27:48.160Z,4.70
2019-01-14T22:30:20.323Z,4.60
2019-01-14T22:32:56.983Z,4.60
2019-01-14T22:35:23.256Z,4.60
2019-01-14T22:37:57.652Z,4.60
2019-01-14T22:40:23.994Z,4.60
2019-01-14T22:42:57.872Z,4.60
2019-01-14T22:45:39.185Z,4.60
2019-01-14T22:48:07.400Z,4.60
2019-01-14T22:50:35.504Z,4.60
2019-01-14T22:53:01.712Z,4.60
2019-01-14T22:55:29.102Z,4.60
2019-01-14T22:57:56.217Z,4.60
2019-01-14T23:00:49.194Z,4.60
2019-01-14T23:03:19.512Z,4.60
2019-01-14T23:05:45.600Z,4.60
2019-01-14T23:08:11.992Z,4.50
2019-01-14T23:10:39.478Z,4.50
2019-01-14T23:13:09.637Z,4.50
2019-01-14T23:15:35.782Z,4.40
2019-01-14T23:18:05.936Z,4.40
2019-01-14T23:20:38.170Z,4.40
2019-01-14T23:23:05.206Z,4.40
2019-01-14T23:25:32.377Z,4.40
2019-01-14T23:28:05.497Z,4.40
2019-01-14T23:30:32.716Z,4.30
2019-01-14T23:33:04.694Z,4.30
2019-01-14T23:35:39.041Z,4.30
2019-01-14T23:38:05.176Z,4.30
2019-01-14T23:40:31.261Z,4.30
2019-01-14T23:42:57.328Z,4.30
2019-01-14T23:45:23.344Z,4.40
2019-01-14T23:47:50.427Z,4.40
2019-01-14T23:50:16.573Z,4.40
2019-01-14T23:52:42.844Z,4.40
2019-01-14T23:55:15.797Z,4.40
2019-01-14T23:57:42.179Z,4.40
